Pagrindinis puslapis
METAR-TAF:

METAR-TAF

Oro uostai :

Nuakšotas, Mauritanija

platuma: 18-18-36N, ilguma: 015-58-11W, Aukštis: 3 m

Dabartinis oras

Ataskaita buvo paskelbta 42 minutes, ne 06:00 UTC
Vėjas 13 kt iš Šiaurės
Temperatūra 26°C
Drėgmė 70%
Slėgis 1010 hPa
Matomumas: 2000 m
Smėlio pustymas

METAR: GQNO 070600Z 36013KT 2000 BLSA NSC 26/20 Q1010 NOSIG

Laikas: 06:42 (06:42 UTC)

Prognozė

Ataskaita buvo paskelbta 1 valandą ir 42 minutes, ne 05:00 UTC
Prognozė galioja nuo 07 metu 06 UTC su 08 metu 12 UTC
Vėjas 12 kt iš Šiaurės/Šiaurės Vakarų
Matomumas: 2500 m
Dulkes pustymas
Tapsmas
nuo 07 metu 07 UTC su 07 metu 09 UTC
Vėjas 15 kt iš Šiaurės Rytų
Tapsmas
nuo 07 metu 13 UTC su 07 metu 17 UTC
Vėjas 12 kt iš Vakarų/Šiaurės Vakarų
Matomumas: 6000 m

TAF: GQNO 070500Z 0706/0812 34012KT 2500 BLDU BECMG 0707/0709 04015KT BECMG 0713/0717 30012KT 6000 NSW

Orai ataskaitas ir orų prognozės (METAR, TAF).

turimą stotys yra geltonos ir raudonos taškus žemėlapyje.

Perkelti pele per norėdami pamatyti stoties vardą.

Tada spustelėkite, norėdami matyti oro stebėjimo ir prognozės.

Norėdami pakeisti žemėlapį: spustelėkite ant žalios mygtukų su juodo kryžiaus žemyn,; žalią mygtuką su brūkšneliu, jei norite nutolinti; arba žalių rodyklių gretimoms žemėlapius.


METAR-TAF: